Time;durP1;ratioP1;P1;durP2;ratioP2;P2;SDS_P1;SDS_P2;PMS_P1;PMS_P2;Temp;Humidity;BMP_temperature;BMP_pressure;BME280_temperature;BME280_humidity;BME280_pressure;Samples;Min_cycle;Max_cycle;Signal;HPM_P1;HPM_P2
2023/02/08 00:01:07;;;;;;;20.30;10.70;;;;;;;-0.42;87.76;103384.58;105133;1259;96633;-76
2023/02/08 00:03:52;;;;;;;20.00;9.80;;;;;;;-0.43;87.85;103384.80;105224;1263;96677;-77
2023/02/08 00:06:37;;;;;;;21.20;10.90;;;;;;;-0.44;87.80;103384.83;105430;1262;100140;-78
2023/02/08 00:09:22;;;;;;;20.00;9.10;;;;;;;-0.45;87.77;103379.94;105170;1259;99151;-76
2023/02/08 00:12:08;;;;;;;21.10;9.20;;;;;;;-0.47;87.81;103379.13;105097;1260;98988;-77
2023/02/08 00:14:54;;;;;;;21.80;10.30;;;;;;;-0.47;87.95;103385.08;105214;1265;96669;-77
2023/02/08 00:17:39;;;;;;;22.00;10.50;;;;;;;-0.46;87.86;103384.38;105315;1259;97053;-77
2023/02/08 00:20:25;;;;;;;17.90;9.20;;;;;;;-0.46;87.83;103385.23;105237;1265;101273;-78
2023/02/08 00:23:12;;;;;;;23.20;9.40;;;;;;;-0.45;87.92;103384.88;105122;1259;99665;-76
2023/02/08 00:25:58;;;;;;;19.70;9.20;;;;;;;-0.45;87.89;103387.64;105549;1264;99402;-76
2023/02/08 00:28:43;;;;;;;18.70;10.00;;;;;;;-0.45;87.69;103389.75;105120;1258;96613;-76
2023/02/08 00:31:29;;;;;;;17.80;9.30;;;;;;;-0.46;87.63;103394.38;105150;1262;97121;-78
2023/02/08 00:34:15;;;;;;;22.30;9.10;;;;;;;-0.48;87.59;103397.59;105186;1260;101314;-78
2023/02/08 00:37:01;;;;;;;19.30;8.90;;;;;;;-0.50;87.51;103399.07;105203;1260;100033;-77
2023/02/08 00:39:46;;;;;;;16.00;8.80;;;;;;;-0.51;87.68;103399.77;105133;1263;97729;-78
2023/02/08 00:42:32;;;;;;;20.00;9.60;;;;;;;-0.50;87.71;103399.20;105015;1265;97123;-79
2023/02/08 00:45:18;;;;;;;18.00;8.70;;;;;;;-0.49;87.68;103402.19;105191;1265;97151;-78
2023/02/08 00:48:04;;;;;;;15.70;9.00;;;;;;;-0.49;87.53;103404.82;105162;1264;101285;-77
2023/02/08 00:51:16;;;;;;;18.00;8.50;;;;;;;-0.48;87.62;103406.35;105133;1265;99082;-78
2023/02/08 00:54:02;;;;;;;22.80;8.80;;;;;;;-0.47;87.66;103406.52;105153;1262;99016;-77
2023/02/08 00:56:48;;;;;;;20.20;9.30;;;;;;;-0.45;87.59;103409.07;105138;1259;96656;-79
2023/02/08 00:59:33;;;;;;;22.60;10.00;;;;;;;-0.42;87.67;103407.58;105112;1259;96666;-76
2023/02/08 01:02:20;;;;;;;17.90;9.30;;;;;;;-0.38;87.63;103408.34;105163;1259;99985;-77
2023/02/08 01:05:06;;;;;;;17.40;9.00;;;;;;;-0.35;87.57;103407.55;105132;1265;98873;-77
2023/02/08 01:07:51;;;;;;;19.60;9.20;;;;;;;-0.34;87.52;103410.12;105176;1259;99044;-78
2023/02/08 01:10:37;;;;;;;17.70;9.10;;;;;;;-0.34;87.36;103407.66;105322;1259;96617;-78
2023/02/08 01:13:22;;;;;;;14.70;6.80;;;;;;;-0.35;87.25;103410.34;105402;1262;97050;-78
2023/02/08 01:16:14;;;;;;;16.50;8.00;;;;;;;-0.37;87.20;103409.69;105283;1260;101294;-78
2023/02/08 01:19:02;;;;;;;17.40;8.80;;;;;;;-0.34;87.24;103411.37;105202;1265;100342;-77
2023/02/08 01:21:48;;;;;;;21.90;9.00;;;;;;;-0.31;87.25;103411.95;105150;1265;98897;-78
2023/02/08 01:24:35;;;;;;;15.60;8.20;;;;;;;-0.26;87.50;103414.59;105077;1259;97900;-77
2023/02/08 01:27:20;;;;;;;19.60;10.50;;;;;;;-0.23;87.33;103417.84;105029;1265;96596;-78
2023/02/08 01:30:07;;;;;;;17.20;7.90;;;;;;;-0.19;87.30;103415.96;104998;1259;100113;-79
2023/02/08 01:32:54;;;;;;;18.70;9.70;;;;;;;-0.14;87.33;103412.48;105146;1263;99125;-78
2023/02/08 01:35:39;;;;;;;21.20;9.80;;;;;;;-0.10;87.37;103412.52;105143;1259;98274;-77
2023/02/08 01:38:25;;;;;;;17.40;8.70;;;;;;;-0.07;87.40;103415.02;105213;1259;96651;-77
2023/02/08 01:41:19;;;;;;;17.50;8.20;;;;;;;-0.05;87.44;103414.61;105270;1264;98298;-78
2023/02/08 01:44:11;;;;;;;20.20;8.50;;;;;;;-0.04;87.15;103418.25;105241;1259;99943;-77
2023/02/08 01:46:56;;;;;;;17.20;9.10;;;;;;;-0.02;86.94;103420.13;105243;1259;99247;-79
2023/02/08 01:49:42;;;;;;;19.80;8.90;;;;;;;-0.01;86.74;103419.77;105292;1259;97715;-79
2023/02/08 01:52:28;;;;;;;20.80;9.40;;;;;;;0.02;86.78;103421.27;105327;1262;96647;-78
2023/02/08 01:55:22;;;;;;;14.40;8.30;;;;;;;0.03;86.88;103421.73;105304;1259;97521;-79
2023/02/08 01:58:11;;;;;;;16.10;9.20;;;;;;;0.05;87.03;103421.84;105441;1262;100016;-77
2023/02/08 02:00:56;;;;;;;16.80;9.50;;;;;;;0.06;87.05;103423.04;105338;1260;99844;-78
2023/02/08 02:03:43;;;;;;;16.40;9.20;;;;;;;0.09;87.29;103429.63;105266;1265;97823;-77
2023/02/08 02:06:39;;;;;;;19.70;9.70;;;;;;;0.11;87.31;103433.59;105446;1260;96704;-77
2023/02/08 02:09:32;;;;;;;18.60;8.40;;;;;;;0.13;87.34;103436.48;105288;1259;97268;-77
2023/02/08 02:12:19;;;;;;;18.70;9.30;;;;;;;0.15;87.34;103438.55;105255;1264;100523;-77
2023/02/08 02:15:05;;;;;;;16.90;8.30;;;;;;;0.15;87.29;103436.80;105166;1264;100083;-78
2023/02/08 02:17:51;;;;;;;21.30;9.60;;;;;;;0.15;87.17;103438.36;105280;1259;97786;-79
2023/02/08 02:20:36;;;;;;;17.40;8.70;;;;;;;0.14;86.89;103434.89;105340;1265;97903;-78
2023/02/08 02:23:59;;;;;;;18.30;9.40;;;;;;;0.14;86.65;103440.52;105143;1259;98317;-77
2023/02/08 02:27:00;;;;;;;18.90;8.20;;;;;;;0.13;86.64;103445.12;105159;1259;100546;-78
2023/02/08 02:30:11;;;;;;;23.40;9.50;;;;;;;0.09;86.44;103447.16;105169;1264;100474;-80
2023/02/08 02:33:25;;;;;;;14.00;8.30;;;;;;;0.06;86.36;103441.67;105323;1263;98960;-77
2023/02/08 02:36:34;;;;;;;12.50;8.50;;;;;;;0.00;86.24;103437.46;105395;1262;97305;-77
2023/02/08 02:39:44;;;;;;;15.70;9.10;;;;;;;-0.06;86.14;103431.35;105345;1265;97135;-76
2023/02/08 02:46:04;;;;;;;18.20;8.60;;;;;;;-0.14;86.43;103443.38;105216;1259;100032;-76
2023/02/08 02:49:17;;;;;;;18.00;8.90;;;;;;;-0.12;86.66;103443.83;105183;1259;97825;-78
2023/02/08 02:52:08;;;;;;;17.90;9.00;;;;;;;-0.10;86.72;103439.02;107702;1259;96508;-77
2023/02/08 02:55:00;;;;;;;17.10;9.90;;;;;;;-0.08;86.55;103441.23;105141;1265;98020;-80
2023/02/08 02:57:49;;;;;;;15.60;9.30;;;;;;;-0.06;86.50;103439.60;105164;1262;100013;-78
2023/02/08 03:00:35;;;;;;;20.10;10.40;;;;;;;-0.04;86.74;103441.62;105151;1260;99105;-78
2023/02/08 03:03:30;;;;;;;19.60;9.40;;;;;;;-0.01;86.92;103442.23;105169;1260;98645;-77
2023/02/08 03:06:41;;;;;;;18.90;9.80;;;;;;;0.01;86.54;103440.95;105000;1259;97244;-78
2023/02/08 03:09:58;;;;;;;20.80;8.90;;;;;;;-0.03;86.07;103437.04;105016;1263;96656;-78
2023/02/08 03:12:44;;;;;;;19.80;9.50;;;;;;;-0.04;86.04;103438.30;105142;1264;100147;-78
2023/02/08 03:15:54;;;;;;;19.70;10.50;;;;;;;-0.03;86.12;103439.14;105259;1262;100525;-78
2023/02/08 03:18:58;;;;;;;14.40;9.10;;;;;;;-0.03;86.15;103442.13;105335;1260;97901;-79
2023/02/08 03:22:04;;;;;;;14.60;7.90;;;;;;;-0.04;86.12;103444.60;105407;1260;96742;-78
2023/02/08 03:25:00;;;;;;;19.10;9.60;;;;;;;-0.03;86.18;103448.46;105358;1264;97147;-76
2023/02/08 03:28:07;;;;;;;16.20;8.80;;;;;;;-0.02;86.21;103444.55;105435;1262;99997;-78
2023/02/08 03:31:17;;;;;;;19.00;9.60;;;;;;;0.00;86.39;103444.13;105433;1259;99077;-77
2023/02/08 03:34:19;;;;;;;15.30;9.00;;;;;;;0.01;86.26;103444.10;105337;1265;97686;-79
2023/02/08 03:37:20;;;;;;;16.90;9.70;;;;;;;0.03;86.37;103442.99;105421;1259;96615;-77
2023/02/08 03:40:27;;;;;;;22.30;13.30;;;;;;;0.04;86.31;103446.32;105350;1265;96637;-77
2023/02/08 03:43:20;;;;;;;21.30;14.10;;;;;;;0.00;86.07;103448.52;106317;1273;100046;-79
2023/02/08 03:46:12;;;;;;;26.70;20.50;;;;;;;-0.03;86.13;103449.14;105283;1263;99098;-77
2023/02/08 03:49:06;;;;;;;33.40;19.40;;;;;;;-0.02;86.28;103450.71;105343;1260;98935;-77
2023/02/08 03:51:53;;;;;;;24.40;12.50;;;;;;;-0.02;86.28;103447.35;105333;1263;97038;-77
2023/02/08 03:54:48;;;;;;;21.20;10.80;;;;;;;-0.02;86.05;103447.70;105373;1258;96527;-77
2023/02/08 03:57:56;;;;;;;20.40;10.50;;;;;;;-0.06;85.71;103448.02;105294;1259;100010;-78
2023/02/08 04:00:48;;;;;;;21.60;10.30;;;;;;;-0.13;85.72;103450.19;105116;1260;100098;-78
2023/02/08 04:03:34;;;;;;;20.20;10.40;;;;;;;-0.16;85.90;103452.04;105210;1265;97761;-77
2023/02/08 04:06:21;;;;;;;18.80;9.30;;;;;;;-0.16;86.19;103451.34;105089;1259;96692;-78
2023/02/08 04:09:06;;;;;;;18.90;10.40;;;;;;;-0.16;86.16;103454.15;105108;1263;96613;-77
2023/02/08 04:11:52;;;;;;;18.70;9.70;;;;;;;-0.17;86.01;103452.96;105313;1265;100213;-77
2023/02/08 04:14:37;;;;;;;19.70;10.70;;;;;;;-0.22;86.07;103457.50;105341;1259;99078;-79
2023/02/08 04:17:23;;;;;;;21.90;10.50;;;;;;;-0.25;86.14;103459.16;105362;1261;97738;-79
2023/02/08 04:20:09;;;;;;;20.70;9.20;;;;;;;-0.23;86.25;103457.01;105201;1263;97275;-77
2023/02/08 04:22:55;;;;;;;18.30;9.10;;;;;;;-0.24;86.37;103467.04;105316;1263;96607;-77
2023/02/08 04:25:41;;;;;;;15.20;9.00;;;;;;;-0.25;86.40;103463.23;105254;1264;99993;-78
2023/02/08 04:28:26;;;;;;;19.70;9.50;;;;;;;-0.24;86.52;103467.05;105043;1265;100357;-77
2023/02/08 04:31:12;;;;;;;19.20;8.80;;;;;;;-0.24;86.79;103460.19;105133;1263;97931;-78
2023/02/08 04:33:58;;;;;;;19.00;10.00;;;;;;;-0.23;86.84;103460.00;105188;1263;96603;-77
2023/02/08 04:36:43;;;;;;;19.70;10.30;;;;;;;-0.22;86.84;103459.44;105077;1265;96576;-78
2023/02/08 04:39:29;;;;;;;22.20;11.90;;;;;;;-0.24;86.80;103463.35;105314;1259;101042;-78
2023/02/08 04:42:15;;;;;;;24.50;11.70;;;;;;;-0.23;86.97;103456.99;105292;1261;99148;-76
2023/02/08 04:45:00;;;;;;;19.50;9.80;;;;;;;-0.21;87.08;103461.48;105259;1264;99451;-79
2023/02/08 04:47:46;;;;;;;22.20;11.50;;;;;;;-0.20;87.00;103464.27;105350;1263;96505;-79
2023/02/08 04:50:32;;;;;;;17.90;12.10;;;;;;;-0.20;87.13;103467.27;105094;1263;96731;-77
2023/02/08 04:53:17;;;;;;;24.20;12.80;;;;;;;-0.19;87.06;103469.52;105120;1260;101249;-78
2023/02/08 04:56:03;;;;;;;28.10;16.00;;;;;;;-0.20;87.04;103479.04;105150;1261;99075;-78
2023/02/08 04:58:48;;;;;;;26.00;18.70;;;;;;;-0.22;87.02;103475.42;105024;1265;98269;-76
2023/02/08 05:01:34;;;;;;;29.00;18.40;;;;;;;-0.24;87.14;103476.34;105119;1259;96610;-77
2023/02/08 05:04:20;;;;;;;31.70;17.70;;;;;;;-0.24;87.09;103478.09;105253;1271;96631;-79
2023/02/08 05:07:05;;;;;;;29.30;15.60;;;;;;;-0.23;87.09;103481.25;105299;1265;100087;-78
2023/02/08 05:09:51;;;;;;;27.50;16.70;;;;;;;-0.23;87.17;103482.11;105340;1259;99083;-80
2023/02/08 05:12:36;;;;;;;27.10;18.70;;;;;;;-0.22;87.03;103483.29;105264;1271;97733;-77
2023/02/08 05:15:23;;;;;;;30.80;18.80;;;;;;;-0.22;87.11;103484.54;105203;1264;96537;-78
2023/02/08 05:18:08;;;;;;;28.90;18.00;;;;;;;-0.22;87.11;103492.44;105255;1265;95907;-79
2023/02/08 05:20:55;;;;;;;28.50;17.90;;;;;;;-0.22;87.04;103495.06;105250;1273;100061;-78
2023/02/08 05:23:41;;;;;;;27.00;17.50;;;;;;;-0.23;87.07;103498.80;105291;1263;99073;-76
2023/02/08 05:26:27;;;;;;;20.80;13.70;;;;;;;-0.24;87.00;103499.70;105299;1263;97680;-77
2023/02/08 05:29:14;;;;;;;20.70;12.00;;;;;;;-0.25;87.05;103501.67;105340;1261;96656;-77
2023/02/08 05:31:59;;;;;;;22.80;12.30;;;;;;;-0.26;87.02;103506.09;105440;1263;97174;-77
2023/02/08 05:34:45;;;;;;;19.60;10.40;;;;;;;-0.25;86.95;103507.83;105290;1263;99987;-78
2023/02/08 05:37:30;;;;;;;16.60;10.30;;;;;;;-0.26;86.94;103511.19;105287;1263;99082;-76
2023/02/08 05:40:16;;;;;;;20.80;9.70;;;;;;;-0.27;86.89;103517.70;105104;1264;97707;-77
2023/02/08 05:43:01;;;;;;;18.80;9.60;;;;;;;-0.28;86.88;103514.59;105355;1262;97109;-77
2023/02/08 05:45:49;;;;;;;16.20;9.60;;;;;;;-0.30;86.96;103521.13;105304;1264;98024;-77
2023/02/08 05:48:35;;;;;;;19.00;9.40;;;;;;;-0.30;87.06;103521.67;105268;1265;100072;-78
2023/02/08 05:51:21;;;;;;;20.20;10.00;;;;;;;-0.31;87.05;103524.70;105073;1262;99264;-78
2023/02/08 05:54:06;;;;;;;19.30;11.20;;;;;;;-0.31;87.23;103528.20;105190;1273;98414;-79
2023/02/08 05:56:52;;;;;;;17.60;11.00;;;;;;;-0.29;87.44;103531.65;105228;1264;96645;-79
2023/02/08 05:59:37;;;;;;;24.90;13.80;;;;;;;-0.27;87.59;103536.50;105316;1264;96588;-79
2023/02/08 06:02:23;;;;;;;19.90;12.20;;;;;;;-0.26;87.55;103536.99;105305;1273;100750;-77
2023/02/08 06:05:09;;;;;;;26.50;12.60;;;;;;;-0.25;87.55;103537.14;105347;1263;100192;-79
2023/02/08 06:07:54;;;;;;;19.00;11.70;;;;;;;-0.26;87.45;103538.77;105359;1259;97527;-78
2023/02/08 06:10:40;;;;;;;21.10;11.50;;;;;;;-0.28;87.48;103539.15;105154;1264;96644;-79
2023/02/08 06:13:28;;;;;;;20.90;10.40;;;;;;;-0.26;87.52;103541.40;105161;1264;97049;-78
2023/02/08 06:16:14;;;;;;;21.60;10.20;;;;;;;-0.25;87.56;103545.56;105113;1264;100611;-78
2023/02/08 06:18:59;;;;;;;18.30;10.10;;;;;;;-0.24;87.50;103548.71;105146;1264;100872;-77
2023/02/08 06:21:45;;;;;;;18.70;9.20;;;;;;;-0.24;87.40;103551.34;105196;1262;99106;-78
2023/02/08 06:24:30;;;;;;;21.10;10.70;;;;;;;-0.26;87.43;103550.17;105356;1263;97179;-76
2023/02/08 06:27:16;;;;;;;20.60;10.70;;;;;;;-0.25;87.66;103552.27;105167;1265;97630;-78
2023/02/08 06:30:02;;;;;;;20.20;10.70;;;;;;;-0.24;87.73;103556.96;105322;1264;101302;-77
2023/02/08 06:32:47;;;;;;;18.60;9.50;;;;;;;-0.25;87.71;103559.08;105108;1264;99823;-77
2023/02/08 06:35:32;;;;;;;19.20;9.50;;;;;;;-0.24;87.70;103558.00;105050;1261;98598;-77
2023/02/08 06:38:18;;;;;;;13.90;8.40;;;;;;;-0.23;87.70;103564.98;105119;1264;97399;-76
2023/02/08 06:41:04;;;;;;;17.50;10.10;;;;;;;-0.23;87.71;103569.56;105145;1261;97147;-78
2023/02/08 06:43:50;;;;;;;16.60;9.00;;;;;;;-0.24;87.56;103569.77;105260;1273;100036;-77
2023/02/08 06:46:35;;;;;;;17.50;9.80;;;;;;;-0.25;87.54;103573.67;105247;1264;99695;-77
2023/02/08 06:49:21;;;;;;;21.00;9.30;;;;;;;-0.26;87.69;103576.70;105345;1264;97742;-77
2023/02/08 06:52:06;;;;;;;17.40;9.70;;;;;;;-0.26;87.90;103575.64;105311;1263;97195;-76
2023/02/08 06:54:52;;;;;;;15.50;8.40;;;;;;;-0.26;88.12;103581.05;105140;1263;97050;-76
2023/02/08 06:57:37;;;;;;;14.60;9.00;;;;;;;-0.25;88.19;103579.64;105177;1263;99998;-78
2023/02/08 07:00:23;;;;;;;14.70;9.30;;;;;;;-0.24;88.34;103580.65;105079;1261;101502;-77
2023/02/08 07:03:09;;;;;;;12.40;8.30;;;;;;;-0.21;88.46;103587.75;105105;1260;99084;-77
2023/02/08 07:05:54;;;;;;;18.90;9.00;;;;;;;-0.21;88.25;103594.60;105103;1263;96641;-78
2023/02/08 07:08:40;;;;;;;16.30;8.50;;;;;;;-0.23;88.32;103597.85;105305;1261;97717;-79
2023/02/08 07:11:26;;;;;;;13.30;8.50;;;;;;;-0.23;88.46;103597.83;105354;1264;101250;-79
2023/02/08 07:14:13;;;;;;;17.20;9.20;;;;;;;-0.20;88.79;103600.19;105409;1262;100326;-79
2023/02/08 07:16:59;;;;;;;18.00;8.80;;;;;;;-0.17;88.84;103603.80;105417;1264;98491;-77
2023/02/08 07:19:45;;;;;;;16.70;8.40;;;;;;;-0.14;88.82;103601.79;105328;1260;96634;-77
2023/02/08 07:22:31;;;;;;;17.20;9.00;;;;;;;-0.12;88.79;103599.61;105384;1263;96596;-78
2023/02/08 07:25:17;;;;;;;15.10;8.80;;;;;;;-0.08;88.86;103604.41;105418;1264;99988;-78
2023/02/08 07:28:02;;;;;;;19.30;9.00;;;;;;;-0.06;88.78;103606.45;105411;1261;99082;-76
2023/02/08 07:30:47;;;;;;;16.60;9.20;;;;;;;-0.02;88.67;103609.84;105348;1263;97751;-80
2023/02/08 07:33:34;;;;;;;17.90;9.80;;;;;;;0.02;88.50;103608.86;105231;1261;96620;-79
2023/02/08 07:36:19;;;;;;;16.00;9.80;;;;;;;0.05;88.38;103607.19;105245;1262;97132;-77
2023/02/08 07:39:05;;;;;;;21.80;10.50;;;;;;;0.08;88.30;103606.40;105067;1263;100426;-78
2023/02/08 07:41:51;;;;;;;18.10;10.20;;;;;;;0.10;88.22;103606.86;105335;1261;99063;-76
2023/02/08 07:44:37;;;;;;;13.90;9.90;;;;;;;0.10;87.93;103605.10;105336;1263;97730;-77
2023/02/08 07:47:23;;;;;;;23.30;10.60;;;;;;;0.09;87.82;103603.73;105289;1260;97208;-77
2023/02/08 07:50:08;;;;;;;16.70;8.60;;;;;;;0.08;87.89;103604.80;105332;1264;98011;-76
2023/02/08 07:52:54;;;;;;;19.70;9.90;;;;;;;0.08;87.89;103602.88;105320;1261;101258;-76
2023/02/08 07:55:39;;;;;;;19.10;10.30;;;;;;;0.07;87.87;103600.81;105287;1260;99269;-76
2023/02/08 07:58:25;;;;;;;21.10;11.00;;;;;;;0.12;88.65;103602.75;105136;1261;98761;-77
2023/02/08 08:01:11;;;;;;;18.70;11.00;;;;;;;0.20;88.59;103598.30;105245;1264;96603;-77
2023/02/08 08:03:57;;;;;;;20.90;10.90;;;;;;;0.24;88.03;103602.02;106199;1264;96642;-84
2023/02/08 12:18:07;;;;;;;54.90;29.80;;;;;;;2.14;85.45;103592.60;103158;1287;639500;-75
2023/02/08 12:21:14;;;;;;;53.60;27.90;;;;;;;2.41;84.04;103590.13;104465;1280;95932;-75
2023/02/08 12:24:13;;;;;;;53.30;29.20;;;;;;;2.41;83.81;103586.98;104841;1265;96326;-75
2023/02/08 12:27:23;;;;;;;46.80;27.00;;;;;;;2.43;83.84;103580.36;104761;1268;97600;-75
2023/02/08 12:30:24;;;;;;;56.10;29.90;;;;;;;2.44;83.31;103575.03;104694;1266;100330;-75
2023/02/08 12:33:29;;;;;;;62.40;32.80;;;;;;;2.44;83.15;103574.35;105447;1258;98945;-76
2023/02/08 12:36:38;;;;;;;69.90;41.20;;;;;;;2.47;82.84;103569.95;105577;1258;95833;-76
2023/02/08 12:43:06;;;;;;;49.00;26.60;;;;;;;2.50;82.08;103570.73;105927;1257;97447;-77
2023/02/08 12:46:10;;;;;;;61.10;40.30;;;;;;;2.50;81.81;103567.91;105811;1253;99409;-76
2023/02/08 12:49:29;;;;;;;41.70;21.50;;;;;;;2.53;81.76;103569.36;105622;1258;97766;-75
2023/02/08 12:52:36;;;;;;;40.90;19.20;;;;;;;2.55;81.37;103563.45;105619;1259;95826;-74
2023/02/08 12:55:29;;;;;;;25.50;13.80;;;;;;;2.56;80.71;103562.73;105589;1257;95857;-74
2023/02/08 12:58:29;;;;;;;23.30;12.90;;;;;;;2.55;80.10;103564.34;105544;1253;100052;-75
2023/02/08 13:01:20;;;;;;;21.00;11.30;;;;;;;2.54;79.73;103562.45;105566;1253;100312;-76
2023/02/08 13:04:14;;;;;;;21.00;10.70;;;;;;;2.55;79.41;103559.77;105503;1259;98496;-76
2023/02/08 13:07:06;;;;;;;18.20;9.00;;;;;;;2.54;79.05;103558.20;105581;1255;95964;-76
2023/02/08 13:10:05;;;;;;;17.00;8.80;;;;;;;2.56;79.17;103553.34;105881;1257;95887;-84
2023/02/08 13:12:59;;;;;;;12.50;6.10;;;;;;;2.60;78.91;103546.15;106940;1254;99910;-87
2023/02/08 13:15:56;;;;;;;19.60;14.40;;;;;;;2.62;78.47;103540.23;106493;1258;99145;-86
2023/02/08 13:19:10;;;;;;;8.10;3.80;;;;;;;2.59;77.61;103540.52;106529;1260;99046;-85
2023/02/08 13:21:58;;;;;;;5.30;3.10;;;;;;;2.55;76.96;103540.90;106827;1253;95878;-79
2023/02/08 13:24:46;;;;;;;9.90;5.10;;;;;;;2.56;76.76;103538.56;105842;1265;95774;-81
2023/02/08 13:27:31;;;;;;;11.20;6.40;;;;;;;2.57;76.46;103540.27;106585;1256;98640;-81
2023/02/08 13:30:21;;;;;;;6.10;3.40;;;;;;;2.55;75.85;103536.48;106770;1259;99089;-81
2023/02/08 13:33:27;;;;;;;6.60;4.50;;;;;;;2.51;75.30;103540.17;106249;1258;97769;-84
2023/02/08 13:36:50;;;;;;;3.70;2.70;;;;;;;2.49;75.23;103538.30;106600;1253;95903;-81
2023/02/08 13:39:39;;;;;;;5.00;3.00;;;;;;;2.52;75.32;103534.84;106504;1257;95795;-76
2023/02/08 13:42:30;;;;;;;6.60;3.60;;;;;;;2.53;75.31;103535.33;105520;1256;98621;-76
2023/02/08 13:45:41;;;;;;;5.40;3.40;;;;;;;2.55;75.05;103540.90;105909;1258;100512;-78
2023/02/08 13:48:40;;;;;;;4.20;2.70;;;;;;;2.55;75.03;103544.23;106504;1257;97817;-84
2023/02/08 13:51:32;;;;;;;5.40;3.30;;;;;;;2.56;74.96;103541.93;106268;1262;95889;-76
2023/02/08 13:54:17;;;;;;;5.60;3.10;;;;;;;2.54;74.68;103539.69;106041;1257;95933;-86
2023/02/08 13:57:42;;;;;;;6.50;3.30;;;;;;;2.52;74.58;103540.83;106583;1254;98680;-87
2023/02/08 14:00:35;;;;;;;7.00;3.60;;;;;;;2.50;74.54;103541.98;105555;1254;99144;-74
2023/02/08 14:03:26;;;;;;;6.30;4.00;;;;;;;2.47;74.36;103544.38;106350;1254;99520;-76
2023/02/08 14:06:29;;;;;;;7.70;4.60;;;;;;;2.44;74.05;103543.45;105893;1259;95765;-75
2023/02/08 14:09:45;;;;;;;9.10;4.50;;;;;;;2.41;74.14;103543.92;106964;1257;96529;-82
2023/02/08 14:12:47;;;;;;;9.20;4.70;;;;;;;2.40;74.09;103541.89;106035;1266;99909;-80
2023/02/08 14:15:36;;;;;;;12.80;7.90;;;;;;;2.37;74.08;103540.02;107032;1253;99036;-80
2023/02/08 14:18:26;;;;;;;10.90;6.20;;;;;;;2.34;73.87;103537.69;106486;1257;97753;-73
2023/02/08 14:21:26;;;;;;;16.50;10.60;;;;;;;2.34;73.84;103538.59;106735;1254;96352;-75
2023/02/08 14:24:39;;;;;;;19.10;13.70;;;;;;;2.35;73.86;103541.70;106434;1257;95830;-73
2023/02/08 14:27:27;;;;;;;13.60;8.20;;;;;;;2.38;73.57;103547.24;106815;1258;98678;-78
2023/02/08 14:30:48;;;;;;;12.30;5.90;;;;;;;2.41;73.36;103549.77;106942;1254;99112;-89
2023/02/08 14:33:37;;;;;;;17.20;8.70;;;;;;;2.40;73.27;103545.39;105849;1257;97814;-75
2023/02/08 14:36:30;;;;;;;12.30;7.20;;;;;;;2.40;73.44;103536.56;105971;1266;97173;-78
2023/02/08 14:39:25;;;;;;;15.80;8.10;;;;;;;2.41;72.97;103537.25;106446;1260;95964;-75
2023/02/08 14:42:12;;;;;;;13.40;8.40;;;;;;;2.39;72.95;103534.65;105669;1257;100428;-75
2023/02/08 14:45:00;;;;;;;14.60;8.80;;;;;;;2.37;72.89;103535.27;105500;1259;100820;-76
2023/02/08 14:47:45;;;;;;;17.10;9.40;;;;;;;2.34;72.73;103532.76;105468;1260;97736;-76
2023/02/08 14:50:35;;;;;;;16.80;9.40;;;;;;;2.30;72.76;103533.96;105519;1259;95875;-75
2023/02/08 14:53:55;;;;;;;17.60;9.10;;;;;;;2.26;72.80;103532.36;105648;1258;95870;-76
2023/02/08 14:56:53;;;;;;;15.90;9.60;;;;;;;2.22;73.02;103535.36;105595;1258;99748;-76
2023/02/08 14:59:40;;;;;;;18.10;11.40;;;;;;;2.17;73.01;103536.08;105754;1257;100064;-77
2023/02/08 15:02:31;;;;;;;20.00;11.60;;;;;;;2.13;73.11;103529.40;105639;1257;97580;-74
2023/02/08 15:05:22;;;;;;;16.70;10.40;;;;;;;2.07;72.85;103523.09;105554;1266;95901;-75
2023/02/08 15:08:08;;;;;;;18.40;10.40;;;;;;;2.02;72.83;103532.13;106064;1257;95875;-75
2023/02/08 15:10:54;;;;;;;18.90;9.40;;;;;;;1.98;73.70;103533.16;105550;1266;98766;-75
2023/02/08 15:13:39;;;;;;;23.80;9.70;;;;;;;2.07;75.36;103527.17;105604;1254;99928;-75
2023/02/08 15:16:38;;;;;;;23.40;12.90;;;;;;;2.17;74.40;103526.21;105495;1254;97832;-75
2023/02/08 15:23:32;;;;;;;19.30;10.70;;;;;;;1.98;72.21;103517.50;105798;1267;95894;-75
2023/02/08 15:26:20;;;;;;;23.50;14.00;;;;;;;1.85;72.21;103518.35;105390;1261;98624;-75
2023/02/08 15:29:17;;;;;;;21.90;13.20;;;;;;;1.76;72.16;103511.86;105545;1254;99239;-75
2023/02/08 15:32:02;;;;;;;27.80;14.70;;;;;;;1.66;72.19;103510.47;105676;1258;97731;-76
2023/02/08 15:34:55;;;;;;;34.70;17.80;;;;;;;1.57;71.99;103508.88;105506;1261;95901;-74
2023/02/08 15:37:43;;;;;;;43.70;20.30;;;;;;;1.44;71.68;103503.05;105590;1260;95869;-75
2023/02/08 15:40:33;;;;;;;47.60;22.20;;;;;;;1.34;71.64;103503.77;106359;1260;98708;-76
2023/02/08 15:43:19;;;;;;;51.90;25.70;;;;;;;1.22;71.45;103496.65;106279;1259;99051;-76
2023/02/08 15:46:19;;;;;;;47.50;23.00;;;;;;;1.07;71.44;103493.67;105700;1260;98841;-75
2023/02/08 15:49:04;;;;;;;41.90;21.30;;;;;;;0.95;72.07;103487.08;105614;1254;95891;-76
2023/02/08 15:51:55;;;;;;;38.90;19.80;;;;;;;0.88;72.03;103490.14;106371;1257;95877;-85
2023/02/08 15:54:42;;;;;;;;;;;;;;;0.81;71.99;103489.17;106293;1254;99708;-77
2023/02/08 15:57:59;;;;;;;43.00;19.60;;;;;;;0.72;71.96;103487.73;105750;1262;99378;-76
2023/02/08 16:00:45;;;;;;;45.90;21.20;;;;;;;0.62;71.67;103485.98;105844;1260;98490;-76
2023/02/08 16:03:31;;;;;;;48.00;21.80;;;;;;;0.51;71.56;103486.18;105847;1260;95992;-77
2023/02/08 16:06:23;;;;;;;46.10;20.50;;;;;;;0.41;71.50;103491.10;105678;1257;95934;-78
2023/02/08 16:09:26;;;;;;;49.70;21.30;;;;;;;0.31;71.48;103493.02;106672;1261;98631;-81
2023/02/08 16:12:19;;;;;;;58.10;27.40;;;;;;;0.23;71.54;103491.70;106446;1260;99864;-77
2023/02/08 16:15:05;;;;;;;55.10;22.90;;;;;;;0.17;71.68;103489.97;105588;1255;98977;-77
2023/02/08 16:17:51;;;;;;;62.90;25.90;;;;;;;0.12;71.69;103484.68;105439;1260;95873;-78
2023/02/08 16:20:36;;;;;;;60.40;26.10;;;;;;;0.06;71.66;103483.80;105506;1254;95885;-76
2023/02/08 16:23:29;;;;;;;61.10;26.50;;;;;;;0.02;71.79;103481.48;105522;1261;99904;-76
2023/02/08 16:26:25;;;;;;;56.40;24.50;;;;;;;-0.01;71.94;103480.52;105577;1254;100004;-78
2023/02/08 16:29:20;;;;;;;56.20;22.80;;;;;;;-0.08;71.71;103476.52;105655;1258;98440;-77
2023/02/08 16:32:18;;;;;;;65.90;25.60;;;;;;;-0.12;71.89;103472.98;105552;1258;97189;-76
2023/02/08 16:35:28;;;;;;;75.30;27.80;;;;;;;-0.15;71.82;103472.73;105569;1255;95987;-77
2023/02/08 16:38:20;;;;;;;58.70;25.70;;;;;;;-0.23;71.23;103469.80;105625;1257;100008;-77
2023/02/08 16:41:11;;;;;;;46.10;22.90;;;;;;;-0.33;70.96;103465.75;105624;1257;99084;-76
2023/02/08 16:44:16;;;;;;;45.10;21.30;;;;;;;-0.44;70.87;103462.07;105658;1257;97747;-76
2023/02/08 16:47:21;;;;;;;46.00;21.10;;;;;;;-0.56;71.05;103458.55;107979;1257;94001;-77
2023/02/08 16:50:10;;;;;;;44.80;20.10;;;;;;;-0.66;71.18;103455.88;106506;1256;95895;-76
2023/02/08 16:52:59;;;;;;;38.30;18.70;;;;;;;-0.74;71.20;103455.23;105390;1258;99284;-76
2023/02/08 16:55:45;;;;;;;36.80;18.50;;;;;;;-0.78;71.42;103453.77;105315;1260;100124;-77
2023/02/08 16:58:30;;;;;;;38.10;17.70;;;;;;;-0.84;71.51;103452.01;105526;1260;98993;-77
2023/02/08 17:01:47;;;;;;;38.80;19.40;;;;;;;-0.92;71.44;103448.39;106462;1254;96267;-84
2023/02/08 17:04:34;;;;;;;45.00;21.50;;;;;;;-0.97;71.49;103447.85;106198;1255;95868;-80
2023/02/08 17:07:20;;;;;;;43.40;21.90;;;;;;;-1.01;71.61;103450.05;106342;1257;100496;-83
2023/02/08 17:10:35;;;;;;;39.30;21.80;;;;;;;-1.05;71.65;103444.39;106545;1256;99081;-90
2023/02/08 17:13:23;;;;;;;54.00;27.30;;;;;;;-1.09;71.78;103449.42;106665;1260;99545;-76
2023/02/08 17:16:17;;;;;;;48.60;24.70;;;;;;;-1.11;72.12;103454.22;105544;1264;96661;-77
2023/02/08 17:19:03;;;;;;;48.10;23.80;;;;;;;-1.13;72.19;103453.91;108381;1254;93793;-78
2023/02/08 17:21:49;;;;;;;53.80;27.10;;;;;;;-1.15;72.16;103455.55;108306;1256;101384;-78